Capt. Leroy — WCZ5746 — position and weather

sailwx.info

Track history (hours):
 
Tides and Currents Weather Stations Pressure Air Temp Water Temp Dewpoint Dewpoint Depression Visibility Wind Speed Wind Dir Waves Ship Positions

Capt. Leroy

Owner: MISS MONIE TOWING INC, HULL, TX. More information available from US FCC via Universal Licensing System and Coast Guard Vessel Documentation Center.

Last reported at 2018-Feb-25 21:30 UTC. Time now 2018-Feb-25 21:36 UTC.
Position N 30°03' W 094°02'.

Length 21 m.

Type: Towing. MMSI: 366961670.

Date/timePositionNaut miles runAvg speedWind from/ knotsBaromVisibWave heightAir tempDewpointWater temp
2018-Feb-25 21:30N 30°03' W 094°02'0 0.0
2018-Feb-25 21:00N 30°03' W 094°02'0 0.0
2018-Feb-25 20:30N 30°03' W 094°02'0 0.0
2018-Feb-25 20:00N 30°03' W 094°02'0 0.0
2018-Feb-25 19:30N 30°03' W 094°02'0 0.0
2018-Feb-25 19:00N 30°03' W 094°02'0 1.0
2018-Feb-25 18:30N 30°02' W 094°02'0 0.2
2018-Feb-25 18:00N 30°02' W 094°02'0 0.0
2018-Feb-25 17:30N 30°02' W 094°02'0 0.0
2018-Feb-25 17:00N 30°02' W 094°02'0 0.0
2018-Feb-25 16:29N 30°02' W 094°02'0 0.0
2018-Feb-25 16:00N 30°02' W 094°02'0 0.0
2018-Feb-25 15:30N 30°02' W 094°02'0 0.0
2018-Feb-25 14:59N 30°02' W 094°02'0 0.0
2018-Feb-25 14:30N 30°02' W 094°02'0 0.0
2018-Feb-25 14:00N 30°02' W 094°02'0 0.0
2018-Feb-25 13:31N 30°02' W 094°02'0 0.0
2018-Feb-25 12:59N 30°02' W 094°02'0 0.0
2018-Feb-25 12:30N 30°02' W 094°02'0 0.0
2018-Feb-25 12:01N 30°02' W 094°02'0 0.0
2018-Feb-25 11:30N 30°02' W 094°02'0 0.0
2018-Feb-25 11:00N 30°02' W 094°02'0 0.0
2018-Feb-25 10:30N 30°02' W 094°02'0 0.0
2018-Feb-25 10:01N 30°02' W 094°02'0 0.0
2018-Feb-25 09:30N 30°02' W 094°02'0 0.0
2018-Feb-25 09:01N 30°02' W 094°02'0 0.0
2018-Feb-25 08:31N 30°02' W 094°02'0 0.5
2018-Feb-25 08:00N 30°02' W 094°02'2 4.3
2018-Feb-25 07:30N 30°01' W 094°00'2 4.4
2018-Feb-25 07:00N 30°01' W 093°57'2 4.4
2018-Feb-25 06:30N 29°59' W 093°56'2 4.8
2018-Feb-25 06:00N 29°59' W 093°53'2 3.6
2018-Feb-25 05:30N 29°58' W 093°51'3 5.1
2018-Feb-25 05:00N 29°55' W 093°53'3 5.2
2018-Feb-25 04:31N 29°53' W 093°55'2 4.8
2018-Feb-25 04:01N 29°51' W 093°56'2 4.4
2018-Feb-25 03:30N 29°49' W 093°58'1 2.0
2018-Feb-25 03:00N 29°49' W 093°59'1 2.3
2018-Feb-25 02:30N 29°48' W 093°60'2 4.0
2018-Feb-25 02:00N 29°47' W 094°01'2 3.7
2018-Feb-25 01:31N 29°46' W 094°03'2 4.0
2018-Feb-25 01:00N 29°45' W 094°05'2 4.0
2018-Feb-25 00:31N 29°43' W 094°07'2 4.0
2018-Feb-25 00:00N 29°42' W 094°09'2 4.0
2018-Feb-24 23:29N 29°41' W 094°11'2 4.1
2018-Feb-24 23:00N 29°40' W 094°13'2 4.1
2018-Feb-24 22:29N 29°40' W 094°15'  
2018-Feb-20 23:55N 28°13' W 096°48'2 3.8
2018-Feb-20 23:29N 28°12' W 096°49'4 3.7
2018-Feb-20 22:31N 28°10' W 096°53'0 2.4
2018-Feb-20 22:26N 28°10' W 096°53'2 3.8
2018-Feb-20 22:00N 28°09' W 096°54'2 3.8
2018-Feb-20 21:29N 28°07' W 096°56'2 3.9
2018-Feb-20 20:59N 28°05' W 096°57'2 4.2
2018-Feb-20 20:28N 28°04' W 096°58'11 4.0
2018-Feb-20 17:46N 27°54' W 097°03'3 4.5
2018-Feb-20 17:01N 27°51' W 097°04'0 3.6
2018-Feb-20 16:59N 27°51' W 097°04'4 0.2
2018-Feb-19 17:08N 27°50' W 097°09'1 5.3
2018-Feb-19 16:59N 27°50' W 097°08'2 4.9
2018-Feb-19 16:29N 27°50' W 097°05'3 4.9
2018-Feb-19 15:55N 27°52' W 097°03'10 5.2
2018-Feb-19 14:00N 28°02' W 097°00'3 5.7
2018-Feb-19 13:30N 28°04' W 096°58'3 5.6
2018-Feb-19 13:00N 28°06' W 096°56'2 4.2
2018-Feb-19 12:29N 28°08' W 096°55'0 0.3
2018-Feb-19 11:59N 28°08' W 096°55'0 0.0
2018-Feb-19 11:30N 28°08' W 096°55'0 0.0
2018-Feb-19 10:59N 28°08' W 096°55'0 0.0
2018-Feb-19 10:30N 28°08' W 096°55'0 0.0
2018-Feb-19 09:59N 28°08' W 096°55'0 0.0
2018-Feb-19 09:29N 28°08' W 096°55'0 0.0
2018-Feb-19 08:58N 28°08' W 096°55'0 0.0
2018-Feb-19 08:24N 28°08' W 096°55'0 0.0
2018-Feb-19 08:00N 28°08' W 096°55'0 0.1
2018-Feb-19 07:29N 28°08' W 096°55'0 0.0
2018-Feb-19 06:59N 28°08' W 096°55'0 0.0
2018-Feb-19 06:28N 28°08' W 096°55'0 0.0
2018-Feb-19 05:57N 28°08' W 096°55'0 0.0
2018-Feb-19 05:27N 28°08' W 096°55'0 0.0
2018-Feb-19 04:58N 28°08' W 096°55'0 0.0
2018-Feb-19 04:30N 28°08' W 096°55'0 0.0
2018-Feb-19 03:59N 28°08' W 096°55'0 0.0
2018-Feb-19 03:26N 28°08' W 096°55'0 0.0
2018-Feb-19 02:57N 28°08' W 096°55'0 0.0
2018-Feb-19 02:30N 28°08' W 096°55'0 0.0
2018-Feb-19 02:00N 28°08' W 096°55'0 0.0
2018-Feb-19 01:28N 28°08' W 096°55'0 0.1
2018-Feb-19 01:00N 28°08' W 096°55'2 3.1
2018-Feb-19 00:27N 28°10' W 096°53'3 5.8
2018-Feb-18 23:57N 28°11' W 096°51'2 4.9
2018-Feb-18 23:29N 28°13' W 096°49'3 5.2
2018-Feb-18 22:58N 28°15' W 096°46'3 5.4
2018-Feb-18 22:30N 28°16' W 096°44'3 5.4
2018-Feb-18 21:57N 28°18' W 096°42'2 5.4
2018-Feb-18 21:30N 28°19' W 096°39'33 2.0
2018-Feb-18 05:05N 28°37' W 096°07'0 0.0
2018-Feb-18 04:58N 28°37' W 096°07'0 0.0
2018-Feb-18 04:30N 28°37' W 096°07'55 2.8
2018-Feb-17 08:41N 29°04' W 095°13'0 0.0
2018-Feb-17 08:11N 29°04' W 095°13'0 0.1
2018-Feb-17 07:57N 29°04' W 095°13'0 0.0
2018-Feb-17 07:30N 29°04' W 095°13'0 0.0
2018-Feb-17 04:07N 29°04' W 095°13'0 0.0
2018-Feb-17 02:13N 29°04' W 095°13'0 0.0
2018-Feb-17 02:00N 29°04' W 095°13'0 0.0
2018-Feb-17 01:30N 29°04' W 095°13'0 0.0
2018-Feb-17 00:59N 29°04' W 095°13'1 0.7
2018-Feb-17 00:13N 29°05' W 095°13'1 4.9
2018-Feb-17 00:00N 29°06' W 095°12'27 4.7
2018-Feb-16 18:08N 29°25' W 094°49'1 7.9
2018-Feb-16 17:59N 29°26' W 094°50'3 7.3
2018-Feb-16 17:30N 29°29' W 094°52'3 6.8
2018-Feb-16 17:00N 29°32' W 094°54'3 6.4
2018-Feb-16 16:30N 29°34' W 094°56'3 5.6
2018-Feb-16 15:58N 29°37' W 094°57'3 5.6
2018-Feb-16 15:29N 29°40' W 094°58'3 6.8
2018-Feb-16 15:00N 29°42' W 095°01'5 5.7
2018-Feb-16 14:05N 29°46' W 095°05'0 1.7
2018-Feb-16 13:49N 29°47' W 095°05'0 0.0
2018-Feb-16 10:49N 29°47' W 095°05'0 0.0
2018-Feb-16 08:17N 29°47' W 095°05'0 0.0
2018-Feb-16 07:40N 29°47' W 095°05'0 0.0
2018-Feb-16 07:30N 29°47' W 095°05'0 0.0
2018-Feb-16 07:00N 29°47' W 095°05'0 0.0
2018-Feb-16 06:24N 29°47' W 095°05'0 0.0
2018-Feb-16 05:57N 29°47' W 095°05'0 0.0
2018-Feb-16 05:30N 29°47' W 095°05'0 0.0
2018-Feb-16 04:55N 29°47' W 095°05'0 0.0
2018-Feb-16 04:20N 29°47' W 095°05'0 0.0
2018-Feb-16 03:59N 29°47' W 095°05'0 0.0
2018-Feb-16 03:20N 29°47' W 095°05'0 0.0
2018-Feb-16 02:51N 29°47' W 095°05'0 0.0
2018-Feb-16 02:23N 29°47' W 095°05'0 0.0
2018-Feb-16 02:00N 29°47' W 095°05'  
Track history (hours):
 
Tides and Currents Weather Stations Pressure Air Temp Water Temp Dewpoint Dewpoint Depression Visibility Wind Speed Wind Dir Waves Ship Positions

Capt. Leroy

Owner: MISS MONIE TOWING INC, HULL, TX. More information available from US FCC via Universal Licensing System and Coast Guard Vessel Documentation Center.

Last reported at 2018-Feb-25 21:30 UTC. Time now 2018-Feb-25 21:36 UTC.
Position N 30°03' W 094°02'.

Length 21 m.

Type: Towing. MMSI: 366961670.

Date/timePositionNaut miles runAvg speedWind from/ knotsBaromVisibWave heightAir tempDewpointWater temp
2018-Feb-25 21:30N 30°03' W 094°02'0 0.0
2018-Feb-25 21:00N 30°03' W 094°02'0 0.0
2018-Feb-25 20:30N 30°03' W 094°02'0 0.0
2018-Feb-25 20:00N 30°03' W 094°02'0 0.0
2018-Feb-25 19:30N 30°03' W 094°02'0 0.0
2018-Feb-25 19:00N 30°03' W 094°02'0 1.0
2018-Feb-25 18:30N 30°02' W 094°02'0 0.2
2018-Feb-25 18:00N 30°02' W 094°02'0 0.0
2018-Feb-25 17:30N 30°02' W 094°02'0 0.0
2018-Feb-25 17:00N 30°02' W 094°02'0 0.0
2018-Feb-25 16:29N 30°02' W 094°02'0 0.0
2018-Feb-25 16:00N 30°02' W 094°02'0 0.0
2018-Feb-25 15:30N 30°02' W 094°02'0 0.0
2018-Feb-25 14:59N 30°02' W 094°02'0 0.0
2018-Feb-25 14:30N 30°02' W 094°02'0 0.0
2018-Feb-25 14:00N 30°02' W 094°02'0 0.0
2018-Feb-25 13:31N 30°02' W 094°02'0 0.0
2018-Feb-25 12:59N 30°02' W 094°02'0 0.0
2018-Feb-25 12:30N 30°02' W 094°02'0 0.0
2018-Feb-25 12:01N 30°02' W 094°02'0 0.0
2018-Feb-25 11:30N 30°02' W 094°02'0 0.0
2018-Feb-25 11:00N 30°02' W 094°02'0 0.0
2018-Feb-25 10:30N 30°02' W 094°02'0 0.0
2018-Feb-25 10:01N 30°02' W 094°02'0 0.0
2018-Feb-25 09:30N 30°02' W 094°02'0 0.0
2018-Feb-25 09:01N 30°02' W 094°02'0 0.0
2018-Feb-25 08:31N 30°02' W 094°02'0 0.5
2018-Feb-25 08:00N 30°02' W 094°02'2 4.3
2018-Feb-25 07:30N 30°01' W 094°00'2 4.4
2018-Feb-25 07:00N 30°01' W 093°57'2 4.4
2018-Feb-25 06:30N 29°59' W 093°56'2 4.8
2018-Feb-25 06:00N 29°59' W 093°53'2 3.6
2018-Feb-25 05:30N 29°58' W 093°51'3 5.1
2018-Feb-25 05:00N 29°55' W 093°53'3 5.2
2018-Feb-25 04:31N 29°53' W 093°55'2 4.8
2018-Feb-25 04:01N 29°51' W 093°56'2 4.4
2018-Feb-25 03:30N 29°49' W 093°58'1 2.0
2018-Feb-25 03:00N 29°49' W 093°59'1 2.3
2018-Feb-25 02:30N 29°48' W 093°60'2 4.0
2018-Feb-25 02:00N 29°47' W 094°01'2 3.7
2018-Feb-25 01:31N 29°46' W 094°03'2 4.0
2018-Feb-25 01:00N 29°45' W 094°05'2 4.0
2018-Feb-25 00:31N 29°43' W 094°07'2 4.0
2018-Feb-25 00:00N 29°42' W 094°09'2 4.0
2018-Feb-24 23:29N 29°41' W 094°11'2 4.1
2018-Feb-24 23:00N 29°40' W 094°13'2 4.1
2018-Feb-24 22:29N 29°40' W 094°15'  
2018-Feb-20 23:55N 28°13' W 096°48'2 3.8
2018-Feb-20 23:29N 28°12' W 096°49'4 3.7
2018-Feb-20 22:31N 28°10' W 096°53'0 2.4
2018-Feb-20 22:26N 28°10' W 096°53'2 3.8
2018-Feb-20 22:00N 28°09' W 096°54'2 3.8
2018-Feb-20 21:29N 28°07' W 096°56'2 3.9
2018-Feb-20 20:59N 28°05' W 096°57'2 4.2
2018-Feb-20 20:28N 28°04' W 096°58'11 4.0
2018-Feb-20 17:46N 27°54' W 097°03'3 4.5
2018-Feb-20 17:01N 27°51' W 097°04'0 3.6
2018-Feb-20 16:59N 27°51' W 097°04'4 0.2
2018-Feb-19 17:08N 27°50' W 097°09'1 5.3
2018-Feb-19 16:59N 27°50' W 097°08'2 4.9
2018-Feb-19 16:29N 27°50' W 097°05'3 4.9
2018-Feb-19 15:55N 27°52' W 097°03'10 5.2
2018-Feb-19 14:00N 28°02' W 097°00'3 5.7
2018-Feb-19 13:30N 28°04' W 096°58'3 5.6
2018-Feb-19 13:00N 28°06' W 096°56'2 4.2
2018-Feb-19 12:29N 28°08' W 096°55'0 0.3
2018-Feb-19 11:59N 28°08' W 096°55'0 0.0
2018-Feb-19 11:30N 28°08' W 096°55'0 0.0
2018-Feb-19 10:59N 28°08' W 096°55'0 0.0
2018-Feb-19 10:30N 28°08' W 096°55'0 0.0
2018-Feb-19 09:59N 28°08' W 096°55'0 0.0
2018-Feb-19 09:29N 28°08' W 096°55'0 0.0
2018-Feb-19 08:58N 28°08' W 096°55'0 0.0
2018-Feb-19 08:24N 28°08' W 096°55'0 0.0
2018-Feb-19 08:00N 28°08' W 096°55'0 0.1
2018-Feb-19 07:29N 28°08' W 096°55'0 0.0
2018-Feb-19 06:59N 28°08' W 096°55'0 0.0
2018-Feb-19 06:28N 28°08' W 096°55'0 0.0
2018-Feb-19 05:57N 28°08' W 096°55'0 0.0
2018-Feb-19 05:27N 28°08' W 096°55'0 0.0
2018-Feb-19 04:58N 28°08' W 096°55'0 0.0
2018-Feb-19 04:30N 28°08' W 096°55'0 0.0
2018-Feb-19 03:59N 28°08' W 096°55'0 0.0
2018-Feb-19 03:26N 28°08' W 096°55'0 0.0
2018-Feb-19 02:57N 28°08' W 096°55'0 0.0
2018-Feb-19 02:30N 28°08' W 096°55'0 0.0
2018-Feb-19 02:00N 28°08' W 096°55'0 0.0
2018-Feb-19 01:28N 28°08' W 096°55'0 0.1
2018-Feb-19 01:00N 28°08' W 096°55'2 3.1
2018-Feb-19 00:27N 28°10' W 096°53'3 5.8
2018-Feb-18 23:57N 28°11' W 096°51'2 4.9
2018-Feb-18 23:29N 28°13' W 096°49'3 5.2
2018-Feb-18 22:58N 28°15' W 096°46'3 5.4
2018-Feb-18 22:30N 28°16' W 096°44'3 5.4
2018-Feb-18 21:57N 28°18' W 096°42'2 5.4
2018-Feb-18 21:30N 28°19' W 096°39'33 2.0
2018-Feb-18 05:05N 28°37' W 096°07'0 0.0
2018-Feb-18 04:58N 28°37' W 096°07'0 0.0
2018-Feb-18 04:30N 28°37' W 096°07'55 2.8
2018-Feb-17 08:41N 29°04' W 095°13'0 0.0
2018-Feb-17 08:11N 29°04' W 095°13'0 0.1
2018-Feb-17 07:57N 29°04' W 095°13'0 0.0
2018-Feb-17 07:30N 29°04' W 095°13'0 0.0
2018-Feb-17 04:07N 29°04' W 095°13'0 0.0
2018-Feb-17 02:13N 29°04' W 095°13'0 0.0
2018-Feb-17 02:00N 29°04' W 095°13'0 0.0
2018-Feb-17 01:30N 29°04' W 095°13'0 0.0
2018-Feb-17 00:59N 29°04' W 095°13'1 0.7
2018-Feb-17 00:13N 29°05' W 095°13'1 4.9
2018-Feb-17 00:00N 29°06' W 095°12'27 4.7
2018-Feb-16 18:08N 29°25' W 094°49'1 7.9
2018-Feb-16 17:59N 29°26' W 094°50'3 7.3
2018-Feb-16 17:30N 29°29' W 094°52'3 6.8
2018-Feb-16 17:00N 29°32' W 094°54'3 6.4
2018-Feb-16 16:30N 29°34' W 094°56'3 5.6
2018-Feb-16 15:58N 29°37' W 094°57'3 5.6
2018-Feb-16 15:29N 29°40' W 094°58'3 6.8
2018-Feb-16 15:00N 29°42' W 095°01'5 5.7
2018-Feb-16 14:05N 29°46' W 095°05'0 1.7
2018-Feb-16 13:49N 29°47' W 095°05'0 0.0
2018-Feb-16 10:49N 29°47' W 095°05'0 0.0
2018-Feb-16 08:17N 29°47' W 095°05'0 0.0
2018-Feb-16 07:40N 29°47' W 095°05'0 0.0
2018-Feb-16 07:30N 29°47' W 095°05'0 0.0
2018-Feb-16 07:00N 29°47' W 095°05'0 0.0
2018-Feb-16 06:24N 29°47' W 095°05'0 0.0
2018-Feb-16 05:57N 29°47' W 095°05'0 0.0
2018-Feb-16 05:30N 29°47' W 095°05'0 0.0
2018-Feb-16 04:55N 29°47' W 095°05'0 0.0
2018-Feb-16 04:20N 29°47' W 095°05'0 0.0
2018-Feb-16 03:59N 29°47' W 095°05'0 0.0
2018-Feb-16 03:20N 29°47' W 095°05'0 0.0
2018-Feb-16 02:51N 29°47' W 095°05'0 0.0
2018-Feb-16 02:23N 29°47' W 095°05'0 0.0
2018-Feb-16 02:00N 29°47' W 095°05'  

Dump ship's entire track history